Etusivu
METAR-TAF:

METAR-TAF

Lentoasemat :

Rodez, Ranska

Leveyspiiri: 44-24N, Pituuspiiri: 002-29E, korkeus merenpinnasta: 581 m

Tämänhetkinen sää

Tämä raportti tehtiin 11 minuuttia sitten, kello 03.30 UTC
Tuuli 2 kn etelästä
Lämpötila 5°C
Kosteus 93%
Ilmanpaine 1024 hPa
Näkyvyys: 6000 m

METAR: LFCR 210330Z AUTO 19002KT 6000 NSC 05/04 Q1024 TEMPO 0500 BCFG

Aika: 05:41 (03:41 UTC)

Sääennuste

Tämä raportti tehtiin 4 tuntia ja 41 minuuttia sitten, kello 23.00 UTC
Ennuste voimassa 21. päivästä klo 00 UTC - 21. päivään klo 24 UTC
Tuuli 3 kn eri suunnista
Näkyvyys 10 km tai enemmän
ei pilviä alle 1500 m:ssä eikä cumulonimbus-pilviä
Todennäköisyys 40% :
Ajoittain
21. päivästä klo 00 UTC - 21. päivään klo 07 UTC
Näkyvyys: 0500 m
sumuhattaroita
Tulossa
21. päivästä klo 11 UTC - 21. päivään klo 14 UTC
Tuuli 8 kn lännestä/luoteesta

TAF: LFCR 202300Z 2100/2124 VRB03KT CAVOK PROB40 TEMPO 2100/2107 0500 BCFG BECMG 2111/2114 30008KT

Säähavainnot ja -ennusteet yli 4000 lentoasemalta (METAR- ja TAF-raportit).

Käytössä olevat sääasemat on merkitty karttaan keltaisilla ja punaisilla pisteillä.

Aseta hiiri pisteen päälle nähdäksesi sääaseman nimen.

Klikkaa sitten nähdäksesi säähavainnot ja -ennusteet.

Kartan vaihtaminen: klikkaa mustalla rastilla varustettuja vihreitä pisteitä, niin voit zoomata sisään; viivalla varustettua vihreää pistettä, niin voit zoomata ulos tai vihreitä nuolia, niin pääset viereisille kartoille.


METAR-TAF: